Time;durP1;ratioP1;P1;durP2;ratioP2;P2;SDS_P1;SDS_P2;PMS_P1;PMS_P2;Temp;Humidity;BMP_temperature;BMP_pressure;BME280_temperature;BME280_humidity;BME280_pressure;Samples;Min_cycle;Max_cycle;Signal;HPM_P1;HPM_P2
2022/02/07 00:02:01;;;;;;;;;2.25;2.25;;;;;;;;5045692;28;45531;-69
2022/02/07 00:04:31;;;;;;;;;1.00;1.00;;;;;;;;5052784;28;46456;-69
2022/02/07 00:06:56;;;;;;;;;1.00;1.00;;;;;;;;5050913;28;45481;-69
2022/02/07 00:09:22;;;;;;;;;1.25;1.25;;;;;;;;5053560;28;45450;-69
2022/02/07 00:11:47;;;;;;;;;1.00;1.00;;;;;;;;5056407;28;45313;-69
2022/02/07 00:14:12;;;;;;;;;1.00;1.00;;;;;;;;5090735;27;48174;-69
2022/02/07 00:16:37;;;;;;;;;2.00;1.00;;;;;;;;5056527;28;45329;-70
2022/02/07 00:19:05;;;;;;;;;3.50;1.00;;;;;;;;5056193;28;45455;-70
2022/02/07 00:21:30;;;;;;;;;2.25;0.25;;;;;;;;5054306;28;45469;-70
2022/02/07 00:23:55;;;;;;;;;1.25;0.25;;;;;;;;5054147;28;46277;-69
2022/02/07 00:26:20;;;;;;;;;1.50;1.25;;;;;;;;5071702;28;45211;-70
2022/02/07 00:28:46;;;;;;;;;3.25;1.50;;;;;;;;5055487;28;45285;-70
2022/02/07 00:31:11;;;;;;;;;0.67;0.67;;;;;;;;5057542;28;45570;-70
2022/02/07 00:33:36;;;;;;;;;1.00;1.00;;;;;;;;5057032;28;46271;-70
2022/02/07 00:36:02;;;;;;;;;2.00;1.25;;;;;;;;5057775;28;45334;-70
2022/02/07 00:38:27;;;;;;;;;2.00;0.67;;;;;;;;5055822;28;45375;-70
2022/02/07 00:41:14;;;;;;;;;1.00;1.00;;;;;;;;5057482;28;45382;-70
2022/02/07 00:43:43;;;;;;;;;2.50;1.00;;;;;;;;5051124;28;47602;-69
2022/02/07 00:46:11;;;;;;;;;0.67;0.33;;;;;;;;5053588;28;45292;-70
2022/02/07 00:48:37;;;;;;;;;1.00;1.00;;;;;;;;5056967;28;45365;-70
2022/02/07 00:51:02;;;;;;;;;2.00;2.00;;;;;;;;5054360;28;45464;-69
2022/02/07 00:53:27;;;;;;;;;3.50;2.50;;;;;;;;5057441;28;46400;-70
2022/02/07 00:55:53;;;;;;;;;2.75;1.00;;;;;;;;5057062;28;45381;-70
2022/02/07 00:58:19;;;;;;;;;0.50;0.50;;;;;;;;5055332;28;45238;-69
2022/02/07 01:00:44;;;;;;;;;1.75;1.75;;;;;;;;5048516;28;45367;-70
2022/02/07 01:03:09;;;;;;;;;1.25;0.75;;;;;;;;5053613;28;45499;-70
2022/02/07 01:05:35;;;;;;;;;1.00;1.00;;;;;;;;5055185;28;45356;-69
2022/02/07 01:08:02;;;;;;;;;2.00;0.50;;;;;;;;5055421;28;45400;-70
2022/02/07 01:10:37;;;;;;;;;1.75;1.75;;;;;;;;5053990;28;45269;-70
2022/02/07 01:21:22;;;;;;;;;2.33;0.67;;;;;;;;5038172;28;45510;-70
2022/02/07 01:51:09;;;;;;;;;3.00;1.00;;;;;;;;5052696;28;45498;-70
2022/02/07 01:54:09;;;;;;;;;0.33;0.00;;;;;;;;5054868;28;45410;-70
2022/02/07 01:56:35;;;;;;;;;1.25;0.75;;;;;;;;5038997;28;45814;-70
2022/02/07 01:59:00;;;;;;;;;0.75;0.25;;;;;;;;5056682;28;45336;-69
2022/02/07 02:01:25;;;;;;;;;0.75;0.75;;;;;;;;5056052;28;45496;-71
2022/02/07 02:03:50;;;;;;;;;1.00;0.33;;;;;;;;5056048;28;45359;-70
2022/02/07 02:06:15;;;;;;;;;1.00;1.00;;;;;;;;5055034;28;46499;-70
2022/02/07 02:08:41;;;;;;;;;1.50;1.50;;;;;;;;5054119;28;45368;-70
2022/02/07 02:11:06;;;;;;;;;1.25;1.00;;;;;;;;5056211;28;45271;-70
2022/02/07 02:13:56;;;;;;;;;0.75;0.50;;;;;;;;5053989;28;45397;-70
2022/02/07 02:16:39;;;;;;;;;1.33;0.00;;;;;;;;5053869;28;47377;-70
2022/02/07 02:37:57;;;;;;;;;0.00;0.00;;;;;;;;5054576;28;45982;-70
2022/02/07 02:45:34;;;;;;;;;2.00;2.00;;;;;;;;5053478;28;45446;-70
2022/02/07 02:48:04;;;;;;;;;1.00;0.00;;;;;;;;5054946;28;47448;-70
2022/02/07 02:50:34;;;;;;;;;0.25;0.00;;;;;;;;5039125;28;45474;-70
2022/02/07 02:53:01;;;;;;;;;1.50;0.75;;;;;;;;5055563;28;45453;-70
2022/02/07 02:55:26;;;;;;;;;2.00;1.00;;;;;;;;5062340;28;45430;-70
2022/02/07 02:57:51;;;;;;;;;0.50;0.00;;;;;;;;5059874;28;46011;-70
2022/02/07 03:00:17;;;;;;;;;3.00;0.00;;;;;;;;5053610;28;45864;-69
2022/02/07 03:02:42;;;;;;;;;2.50;0.00;;;;;;;;5051757;28;45361;-70
2022/02/07 03:05:08;;;;;;;;;1.00;0.00;;;;;;;;5049436;28;45914;-70
2022/02/07 03:07:33;;;;;;;;;3.00;1.00;;;;;;;;5051524;28;46318;-70
2022/02/07 03:10:01;;;;;;;;;5.33;2.00;;;;;;;;5053148;28;45288;-70
2022/02/07 03:12:27;;;;;;;;;3.33;1.00;;;;;;;;5052177;28;45570;-70
2022/02/07 03:15:03;;;;;;;;;0.00;0.00;;;;;;;;5057648;28;45378;-70
2022/02/07 03:17:28;;;;;;;;;2.00;0.25;;;;;;;;5053355;28;45652;-70
2022/02/07 03:19:53;;;;;;;;;1.00;1.00;;;;;;;;5055099;28;45333;-70
2022/02/07 03:22:18;;;;;;;;;0.67;0.67;;;;;;;;5053223;28;45423;-70
2022/02/07 03:24:43;;;;;;;;;3.00;1.00;;;;;;;;5050561;28;45501;-69
2022/02/07 03:27:09;;;;;;;;;1.00;0.00;;;;;;;;5065610;28;45562;-70
2022/02/07 03:29:34;;;;;;;;;0.67;0.67;;;;;;;;5053325;28;45386;-69
2022/02/07 03:31:59;;;;;;;;;0.67;0.67;;;;;;;;5053575;28;46133;-70
2022/02/07 03:34:24;;;;;;;;;2.00;1.00;;;;;;;;5052426;28;45442;-69
2022/02/07 03:36:49;;;;;;;;;0.25;0.25;;;;;;;;5051215;28;46189;-70
2022/02/07 03:39:15;;;;;;;;;1.00;0.75;;;;;;;;5051608;28;45406;-70
2022/02/07 03:41:40;;;;;;;;;0.00;0.00;;;;;;;;5052901;28;45426;-70
2022/02/07 03:44:05;;;;;;;;;0.00;0.00;;;;;;;;5055145;28;45368;-70
2022/02/07 03:46:31;;;;;;;;;0.67;0.00;;;;;;;;5054710;28;46821;-70
2022/02/07 03:48:56;;;;;;;;;1.00;0.00;;;;;;;;5057098;28;45410;-70
2022/02/07 03:51:21;;;;;;;;;1.00;1.00;;;;;;;;5056295;28;45404;-70
2022/02/07 03:53:46;;;;;;;;;0.00;0.00;;;;;;;;5054289;28;45268;-69
2022/02/07 03:56:12;;;;;;;;;0.00;0.00;;;;;;;;5072653;28;46146;-70
2022/02/07 03:58:37;;;;;;;;;1.00;1.00;;;;;;;;5054333;28;45403;-70
2022/02/07 04:01:02;;;;;;;;;0.25;0.00;;;;;;;;5054720;28;45291;-70
2022/02/07 04:03:30;;;;;;;;;1.00;1.00;;;;;;;;5055030;28;45385;-69
2022/02/07 04:06:02;;;;;;;;;3.00;0.25;;;;;;;;5056124;28;45544;-70
2022/02/07 04:08:34;;;;;;;;;2.00;0.67;;;;;;;;5057098;28;45571;-70
2022/02/07 04:13:33;;;;;;;;;0.00;0.00;;;;;;;;5048155;28;45501;-70
2022/02/07 04:16:00;;;;;;;;;0.33;0.33;;;;;;;;5051239;28;46147;-70
2022/02/07 04:18:29;;;;;;;;;0.25;0.25;;;;;;;;5057289;27;45425;-70
2022/02/07 04:20:54;;;;;;;;;1.00;1.00;;;;;;;;5057471;28;45513;-70
2022/02/07 04:23:19;;;;;;;;;1.00;1.00;;;;;;;;5057185;28;45521;-69
2022/02/07 04:25:45;;;;;;;;;1.67;0.00;;;;;;;;5066878;28;45331;-69
2022/02/07 04:28:10;;;;;;;;;0.75;0.75;;;;;;;;5058497;28;45286;-70
2022/02/07 04:30:35;;;;;;;;;0.33;0.00;;;;;;;;5053081;28;45465;-70
2022/02/07 04:33:00;;;;;;;;;0.00;0.00;;;;;;;;5054428;28;45348;-70
2022/02/07 04:35:26;;;;;;;;;1.00;1.00;;;;;;;;5056370;28;46551;-70
2022/02/07 04:37:51;;;;;;;;;2.00;0.25;;;;;;;;5055595;28;45392;-70
2022/02/07 04:40:16;;;;;;;;;2.00;1.00;;;;;;;;5055697;28;45355;-70
2022/02/07 04:42:41;;;;;;;;;1.33;0.00;;;;;;;;5054364;28;45368;-70
2022/02/07 05:03:51;;;;;;;;;1.00;0.00;;;;;;;;4998413;28;45465;-70
2022/02/07 05:14:30;;;;;;;;;0.00;0.00;;;;;;;;5002802;28;45414;-69
2022/02/07 05:16:56;;;;;;;;;2.50;1.00;;;;;;;;4998942;28;46086;-70
2022/02/07 05:19:21;;;;;;;;;1.00;0.00;;;;;;;;4998227;28;45406;-69
2022/02/07 05:21:50;;;;;;;;;2.50;0.25;;;;;;;;4997743;28;45592;-69
2022/02/07 05:24:15;;;;;;;;;0.50;0.50;;;;;;;;4998042;28;45303;-70
2022/02/07 05:26:40;;;;;;;;;0.00;0.00;;;;;;;;4977328;28;48127;-70
2022/02/07 05:29:07;;;;;;;;;1.00;1.00;;;;;;;;4998687;28;45397;-70
2022/02/07 05:31:32;;;;;;;;;1.00;1.00;;;;;;;;4998647;28;45450;-70
2022/02/07 05:33:57;;;;;;;;;0.00;0.00;;;;;;;;5000843;28;45473;-70
2022/02/07 05:36:23;;;;;;;;;1.00;1.00;;;;;;;;5056498;28;46186;-70
2022/02/07 05:38:51;;;;;;;;;0.50;0.50;;;;;;;;5053949;28;45398;-70
2022/02/07 05:41:17;;;;;;;;;1.00;0.00;;;;;;;;5056552;28;45473;-70
2022/02/07 05:43:46;;;;;;;;;0.00;0.00;;;;;;;;5055013;28;45493;-70
2022/02/07 05:46:12;;;;;;;;;0.00;0.00;;;;;;;;5052960;28;46526;-70
2022/02/07 05:48:37;;;;;;;;;0.00;0.00;;;;;;;;5053026;28;45589;-70
2022/02/07 05:51:02;;;;;;;;;1.67;0.67;;;;;;;;5054799;28;45500;-70
2022/02/07 05:53:28;;;;;;;;;1.25;1.00;;;;;;;;5055049;28;45457;-70
2022/02/07 05:55:53;;;;;;;;;1.50;1.00;;;;;;;;5055453;28;45501;-70
2022/02/07 05:58:18;;;;;;;;;1.00;0.00;;;;;;;;5051852;28;45381;-70
2022/02/07 06:00:43;;;;;;;;;2.00;0.00;;;;;;;;5054541;28;45394;-70
2022/02/07 06:03:08;;;;;;;;;1.00;1.00;;;;;;;;5054666;28;45393;-70
2022/02/07 06:05:34;;;;;;;;;0.00;0.00;;;;;;;;5054291;28;46698;-70
2022/02/07 06:07:59;;;;;;;;;1.00;0.00;;;;;;;;5054292;28;45477;-70
2022/02/07 06:10:24;;;;;;;;;2.00;0.25;;;;;;;;5052768;28;45414;-70
2022/02/07 06:12:51;;;;;;;;;1.00;1.00;;;;;;;;5049574;28;45491;-70
2022/02/07 06:15:17;;;;;;;;;1.33;0.33;;;;;;;;5052274;28;47112;-70
2022/02/07 06:17:43;;;;;;;;;0.00;0.00;;;;;;;;5053601;28;45399;-70
2022/02/07 06:20:09;;;;;;;;;1.67;1.00;;;;;;;;5056551;28;45431;-70
2022/02/07 06:22:34;;;;;;;;;1.75;0.75;;;;;;;;5052591;28;45398;-70
2022/02/07 06:25:02;;;;;;;;;0.00;0.00;;;;;;;;5057628;28;46937;-70
2022/02/07 06:27:27;;;;;;;;;0.00;0.00;;;;;;;;5060297;28;45309;-70
2022/02/07 06:29:52;;;;;;;;;0.75;0.00;;;;;;;;5053871;28;45364;-70
2022/02/07 06:32:17;;;;;;;;;0.00;0.00;;;;;;;;5055948;28;45365;-70
2022/02/07 06:34:42;;;;;;;;;0.00;0.00;;;;;;;;5057209;28;47437;-70
2022/02/07 06:37:08;;;;;;;;;0.00;0.00;;;;;;;;5056953;28;45568;-74
2022/02/07 06:39:33;;;;;;;;;0.25;0.25;;;;;;;;5052122;28;45244;-71
2022/02/07 06:41:58;;;;;;;;;1.25;1.25;;;;;;;;5053070;28;45558;-71
2022/02/07 06:44:24;;;;;;;;;0.50;0.50;;;;;;;;5055156;28;48860;-71
2022/02/07 06:46:50;;;;;;;;;0.00;0.00;;;;;;;;5056196;28;45565;-71
2022/02/07 06:49:15;;;;;;;;;1.00;1.00;;;;;;;;5057164;28;45560;-70
2022/02/07 06:51:40;;;;;;;;;1.75;1.00;;;;;;;;5053205;28;45255;-73
2022/02/07 06:54:05;;;;;;;;;0.00;0.00;;;;;;;;5050232;28;46926;-69
2022/02/07 06:56:31;;;;;;;;;0.33;0.33;;;;;;;;5049492;28;45555;-68
2022/02/07 06:58:56;;;;;;;;;2.00;2.00;;;;;;;;5053863;28;45417;-68
2022/02/07 07:01:22;;;;;;;;;1.00;1.00;;;;;;;;5053627;28;45486;-68
2022/02/07 07:03:47;;;;;;;;;0.00;0.00;;;;;;;;5047869;28;45483;-68
2022/02/07 07:06:14;;;;;;;;;0.00;0.00;;;;;;;;5050996;28;45415;-66
2022/02/07 07:08:44;;;;;;;;;0.00;0.00;;;;;;;;5055546;28;45480;-70
2022/02/07 07:11:12;;;;;;;;;1.00;0.00;;;;;;;;5064268;28;45288;-69
2022/02/07 07:13:42;;;;;;;;;1.00;1.00;;;;;;;;5053008;28;46140;-70
2022/02/07 07:16:50;;;;;;;;;0.00;0.00;;;;;;;;5052822;28;45410;-70
2022/02/07 07:18:59;;;;;;;;;1.00;1.00;;;;;;;;5047262;28;45566;-70
2022/02/07 07:21:26;;;;;;;;;1.00;0.00;;;;;;;;5052829;28;45493;-71
2022/02/07 07:23:51;;;;;;;;;2.25;0.00;;;;;;;;5063661;28;46532;-71
2022/02/07 07:26:16;;;;;;;;;0.50;0.50;;;;;;;;5069257;28;45292;-74
2022/02/07 07:28:42;;;;;;;;;3.75;2.00;;;;;;;;5052611;28;45432;-72
2022/02/07 07:31:10;;;;;;;;;1.75;1.75;;;;;;;;5049519;28;45533;-71
2022/02/07 07:33:37;;;;;;;;;2.25;1.25;;;;;;;;5041994;28;45421;-70
2022/02/07 07:36:02;;;;;;;;;0.00;0.00;;;;;;;;5051088;28;46016;-70
2022/02/07 07:38:28;;;;;;;;;2.75;0.00;;;;;;;;5053809;28;45448;-71
2022/02/07 07:40:53;;;;;;;;;0.00;0.00;;;;;;;;5054115;28;45351;-70
2022/02/07 07:43:18;;;;;;;;;1.75;1.00;;;;;;;;5052944;28;45497;-70
2022/02/07 07:45:49;;;;;;;;;1.00;1.00;;;;;;;;5051222;28;45470;-71
2022/02/07 07:48:20;;;;;;;;;1.00;1.00;;;;;;;;5051639;28;45277;-71
2022/02/07 07:53:44;;;;;;;;;0.50;0.50;;;;;;;;5034394;28;45359;-71
2022/02/07 08:04:11;;;;;;;;;0.25;0.25;;;;;;;;5052711;28;45914;-70
2022/02/07 08:06:43;;;;;;;;;2.00;0.00;;;;;;;;5050744;28;45332;-70
2022/02/07 08:11:34;;;;;;;;;3.33;1.00;;;;;;;;5053152;28;45447;-70
2022/02/07 08:14:01;;;;;;;;;1.00;1.00;;;;;;;;5058833;28;45469;-70
2022/02/07 08:16:26;;;;;;;;;1.25;0.00;;;;;;;;5052957;28;45411;-70
2022/02/07 08:18:53;;;;;;;;;1.00;1.00;;;;;;;;5050692;28;45605;-71
2022/02/07 08:21:18;;;;;;;;;2.00;0.25;;;;;;;;5053375;28;45568;-70
2022/02/07 08:23:44;;;;;;;;;1.00;0.25;;;;;;;;5052689;28;45657;-70
2022/02/07 08:26:09;;;;;;;;;1.00;1.00;;;;;;;;5054617;28;45225;-70
2022/02/07 08:28:35;;;;;;;;;1.00;1.00;;;;;;;;5052267;28;45213;-70
2022/02/07 08:31:00;;;;;;;;;2.00;0.00;;;;;;;;5053707;28;45597;-70
2022/02/07 08:33:25;;;;;;;;;1.25;1.25;;;;;;;;5050527;28;45537;-70
2022/02/07 08:35:51;;;;;;;;;2.00;1.00;;;;;;;;5055761;27;45346;-71
2022/02/07 08:38:18;;;;;;;;;2.00;0.75;;;;;;;;5060897;28;45466;-71
2022/02/07 08:40:43;;;;;;;;;1.00;0.00;;;;;;;;5054795;28;45727;-71
2022/02/07 08:43:08;;;;;;;;;0.25;0.25;;;;;;;;5055184;28;46221;-70
2022/02/07 08:45:33;;;;;;;;;4.50;1.50;;;;;;;;5056082;28;45339;-70
2022/02/07 08:47:59;;;;;;;;;1.50;1.00;;;;;;;;5056478;28;47901;-71
2022/02/07 08:50:25;;;;;;;;;1.00;1.00;;;;;;;;5056690;27;45410;-70
2022/02/07 08:52:52;;;;;;;;;2.25;1.00;;;;;;;;5054704;28;46238;-70
2022/02/07 08:55:26;;;;;;;;;1.00;1.00;;;;;;;;5057534;28;45430;-70
2022/02/07 08:57:56;;;;;;;;;3.00;1.00;;;;;;;;5059253;28;45423;-70
2022/02/07 09:00:50;;;;;;;;;0.75;0.25;;;;;;;;5066928;28;45372;-70
2022/02/07 09:08:24;;;;;;;;;1.50;1.00;;;;;;;;5056804;28;45412;-70
2022/02/07 09:10:50;;;;;;;;;3.25;2.00;;;;;;;;5057183;28;45539;-71
2022/02/07 09:13:16;;;;;;;;;2.00;2.00;;;;;;;;5053606;28;45364;-71
2022/02/07 09:15:54;;;;;;;;;1.25;1.25;;;;;;;;5054430;28;45398;-70
2022/02/07 09:18:19;;;;;;;;;2.00;1.00;;;;;;;;5054986;28;45914;-70
2022/02/07 09:20:45;;;;;;;;;4.00;2.00;;;;;;;;5086887;27;45389;-70
2022/02/07 09:23:11;;;;;;;;;1.00;1.00;;;;;;;;5057328;28;45585;-70
2022/02/07 09:25:36;;;;;;;;;2.00;2.00;;;;;;;;5054187;28;45421;-71
2022/02/07 09:28:02;;;;;;;;;3.00;1.00;;;;;;;;5053420;28;45435;-70
2022/02/07 09:30:27;;;;;;;;;1.00;1.00;;;;;;;;5055343;28;45772;-70
2022/02/07 09:32:52;;;;;;;;;1.00;1.00;;;;;;;;5053040;28;46524;-70
2022/02/07 09:35:18;;;;;;;;;1.00;1.00;;;;;;;;5056485;28;45372;-69
2022/02/07 09:37:44;;;;;;;;;1.00;1.00;;;;;;;;5054590;28;45517;-70
2022/02/07 09:40:10;;;;;;;;;3.25;3.00;;;;;;;;5053316;28;45496;-70
2022/02/07 09:42:40;;;;;;;;;1.50;1.50;;;;;;;;5053169;28;46361;-70
2022/02/07 09:45:12;;;;;;;;;2.50;1.50;;;;;;;;5054732;28;45426;-70
2022/02/07 09:47:38;;;;;;;;;3.00;2.00;;;;;;;;5054492;28;45358;-71
2022/02/07 09:50:03;;;;;;;;;1.75;1.75;;;;;;;;5068360;28;45422;-70
2022/02/07 09:52:28;;;;;;;;;1.25;1.25;;;;;;;;5056097;28;46274;-70
2022/02/07 09:54:54;;;;;;;;;1.50;1.50;;;;;;;;5053163;28;45473;-70
2022/02/07 09:57:20;;;;;;;;;1.75;1.75;;;;;;;;5053043;28;45704;-70
2022/02/07 09:59:48;;;;;;;;;2.75;1.25;;;;;;;;5039060;28;45328;-70
2022/02/07 10:02:30;;;;;;;;;2.00;2.00;;;;;;;;5052483;28;47210;-70
2022/02/07 10:04:59;;;;;;;;;2.25;1.25;;;;;;;;5055885;28;45477;-70
2022/02/07 10:07:35;;;;;;;;;4.50;2.00;;;;;;;;5052776;28;45413;-71
2022/02/07 10:10:19;;;;;;;;;2.25;1.25;;;;;;;;5057102;28;45425;-70
2022/02/07 10:15:36;;;;;;;;;2.00;2.00;;;;;;;;5055145;28;45466;-70
2022/02/07 10:18:14;;;;;;;;;1.25;1.25;;;;;;;;5055373;28;45494;-70
2022/02/07 10:34:58;;;;;;;;;1.25;1.25;;;;;;;;5051093;28;45448;-71
2022/02/07 10:46:00;;;;;;;;;3.75;2.75;;;;;;;;5053398;28;45541;-70
2022/02/07 10:48:33;;;;;;;;;2.00;2.00;;;;;;;;5051182;28;45370;-70
2022/02/07 10:51:09;;;;;;;;;4.75;2.75;;;;;;;;5052294;28;45364;-71
2022/02/07 10:53:36;;;;;;;;;3.50;1.50;;;;;;;;5053620;28;45370;-70
2022/02/07 10:56:02;;;;;;;;;2.00;2.00;;;;;;;;5053812;28;46339;-70
2022/02/07 10:58:29;;;;;;;;;2.00;1.50;;;;;;;;5051811;28;45918;-70
2022/02/07 11:00:58;;;;;;;;;1.00;1.00;;;;;;;;5051949;28;45574;-70
2022/02/07 11:03:25;;;;;;;;;1.25;1.25;;;;;;;;5051376;28;45351;-70
2022/02/07 11:05:56;;;;;;;;;3.25;2.25;;;;;;;;5053087;28;45892;-71
2022/02/07 11:17:22;;;;;;;;;4.75;1.75;;;;;;;;5052420;28;45591;-70
2022/02/07 11:21:41;;;;;;;;;2.00;2.00;;;;;;;;5053104;28;45442;-71
2022/02/07 11:24:21;;;;;;;;;2.25;2.25;;;;;;;;5051678;28;45564;-71
2022/02/07 11:26:50;;;;;;;;;3.00;3.00;;;;;;;;5066031;28;46461;-71
2022/02/07 11:29:35;;;;;;;;;4.00;2.00;;;;;;;;5054745;28;45452;-71
2022/02/07 11:32:00;;;;;;;;;1.50;1.50;;;;;;;;5053205;28;45490;-70
2022/02/07 11:34:40;;;;;;;;;1.75;1.75;;;;;;;;5052284;28;45454;-70
2022/02/07 11:37:23;;;;;;;;;3.25;2.00;;;;;;;;5052650;28;45568;-70
2022/02/07 11:39:49;;;;;;;;;2.00;1.75;;;;;;;;5052831;28;45257;-70
2022/02/07 11:42:15;;;;;;;;;4.50;2.75;;;;;;;;5054469;28;45323;-70
2022/02/07 11:44:41;;;;;;;;;2.00;1.50;;;;;;;;5054348;28;45517;-70
2022/02/07 11:47:22;;;;;;;;;1.25;1.25;;;;;;;;5054088;28;46353;-71
2022/02/07 11:49:48;;;;;;;;;2.75;2.75;;;;;;;;5054228;28;45267;-70
2022/02/07 11:52:35;;;;;;;;;1.25;1.25;;;;;;;;5052968;28;45549;-71
2022/02/07 11:55:13;;;;;;;;;2.00;2.00;;;;;;;;5042554;28;45501;-70
2022/02/07 11:57:40;;;;;;;;;3.50;2.00;;;;;;;;5053569;28;46564;-70
2022/02/07 12:00:12;;;;;;;;;3.00;3.00;;;;;;;;5052187;28;45321;-70
2022/02/07 12:02:38;;;;;;;;;1.50;1.25;;;;;;;;5052619;28;45370;-70
2022/02/07 12:05:10;;;;;;;;;4.00;1.75;;;;;;;;5053564;28;45435;-70
2022/02/07 12:07:40;;;;;;;;;4.50;3.00;;;;;;;;5055936;28;46703;-71
2022/02/07 12:12:39;;;;;;;;;1.00;0.75;;;;;;;;5064187;28;45530;-71
2022/02/07 12:15:05;;;;;;;;;5.00;1.00;;;;;;;;5054529;28;45316;-70
2022/02/07 12:17:42;;;;;;;;;1.00;1.00;;;;;;;;5056730;28;46247;-70
2022/02/07 12:20:09;;;;;;;;;1.50;1.50;;;;;;;;5056967;28;45417;-71
2022/02/07 12:22:51;;;;;;;;;2.00;2.00;;;;;;;;5054351;28;48305;-70
2022/02/07 12:25:33;;;;;;;;;3.25;2.00;;;;;;;;5053364;28;45412;-70
2022/02/07 12:28:03;;;;;;;;;4.25;3.25;;;;;;;;5054579;28;46360;-70
2022/02/07 12:30:44;;;;;;;;;2.00;2.00;;;;;;;;5055049;28;45453;-71
2022/02/07 12:33:09;;;;;;;;;1.00;1.00;;;;;;;;5055921;28;45313;-71
2022/02/07 12:35:34;;;;;;;;;2.75;1.25;;;;;;;;5056328;28;45329;-70
2022/02/07 12:38:00;;;;;;;;;4.00;1.75;;;;;;;;5057646;28;45664;-70
2022/02/07 12:40:25;;;;;;;;;2.25;1.00;;;;;;;;5056563;28;45758;-70
2022/02/07 12:42:51;;;;;;;;;1.00;1.00;;;;;;;;5061970;28;45474;-70
2022/02/07 12:45:18;;;;;;;;;1.25;1.00;;;;;;;;5056200;28;45450;-70
2022/02/07 12:47:49;;;;;;;;;3.00;1.00;;;;;;;;5056288;28;46311;-70
2022/02/07 12:50:15;;;;;;;;;1.50;1.50;;;;;;;;5057656;28;45307;-70
2022/02/07 12:52:40;;;;;;;;;1.75;1.75;;;;;;;;5053997;28;45393;-70
2022/02/07 12:55:07;;;;;;;;;1.00;1.00;;;;;;;;5055180;28;45538;-70
2022/02/07 12:57:42;;;;;;;;;2.50;1.00;;;;;;;;5052703;28;45657;-70
2022/02/07 13:00:10;;;;;;;;;2.00;2.00;;;;;;;;5055341;28;45418;-71
2022/02/07 13:02:35;;;;;;;;;1.00;1.00;;;;;;;;5055356;28;45244;-70
2022/02/07 13:05:00;;;;;;;;;2.00;2.00;;;;;;;;5068393;28;45471;-70
2022/02/07 13:07:27;;;;;;;;;3.50;1.50;;;;;;;;5049754;28;45476;-70
2022/02/07 13:09:56;;;;;;;;;1.50;1.50;;;;;;;;5049126;28;45373;-70
2022/02/07 13:13:16;;;;;;;;;1.75;1.75;;;;;;;;5054975;28;45369;-70
2022/02/07 13:15:17;;;;;;;;;1.50;1.25;;;;;;;;5043365;28;45441;-70
2022/02/07 13:17:43;;;;;;;;;7.00;2.00;;;;;;;;5053608;28;46637;-70
2022/02/07 13:20:10;;;;;;;;;2.00;2.00;;;;;;;;5057197;28;45418;-69
2022/02/07 13:22:35;;;;;;;;;2.75;2.25;;;;;;;;5054590;28;45311;-70
2022/02/07 13:25:00;;;;;;;;;1.75;1.50;;;;;;;;5055641;28;45518;-70
2022/02/07 13:27:26;;;;;;;;;1.50;1.00;;;;;;;;5054440;28;46833;-70
2022/02/07 13:29:54;;;;;;;;;2.00;2.00;;;;;;;;5057187;28;45453;-70
2022/02/07 13:32:23;;;;;;;;;4.75;2.00;;;;;;;;5056687;27;45508;-70
2022/02/07 13:34:49;;;;;;;;;2.00;1.50;;;;;;;;5056119;28;45356;-70
2022/02/07 13:37:24;;;;;;;;;3.00;1.50;;;;;;;;5054626;28;46606;-70
2022/02/07 13:40:01;;;;;;;;;1.00;1.00;;;;;;;;5052027;28;45795;-69
2022/02/07 13:42:29;;;;;;;;;0.75;0.75;;;;;;;;5051821;28;46489;-70
2022/02/07 13:44:59;;;;;;;;;2.00;2.00;;;;;;;;5053250;28;45291;-70
2022/02/07 13:47:25;;;;;;;;;3.75;1.00;;;;;;;;5055915;28;46595;-69
2022/02/07 13:49:58;;;;;;;;;2.00;1.50;;;;;;;;5054704;28;45312;-70
2022/02/07 13:52:27;;;;;;;;;1.00;0.50;;;;;;;;5054366;28;45467;-70
2022/02/07 13:54:53;;;;;;;;;3.00;2.00;;;;;;;;5046290;28;45352;-70
2022/02/07 13:57:18;;;;;;;;;1.25;1.25;;;;;;;;5053654;28;45441;-70
2022/02/07 13:59:43;;;;;;;;;2.25;1.00;;;;;;;;5053691;28;45422;-70
2022/02/07 14:02:27;;;;;;;;;3.00;1.00;;;;;;;;5055668;28;45516;-69
2022/02/07 14:04:53;;;;;;;;;1.50;1.50;;;;;;;;5055220;28;45489;-70
2022/02/07 14:07:19;;;;;;;;;3.00;2.00;;;;;;;;5054026;28;46355;-69
2022/02/07 14:09:44;;;;;;;;;1.00;1.00;;;;;;;;5055686;28;45443;-69
2022/02/07 14:12:10;;;;;;;;;1.75;1.75;;;;;;;;5067838;28;45537;-70
2022/02/07 14:14:35;;;;;;;;;1.75;1.50;;;;;;;;5062417;27;45549;-70
2022/02/07 14:17:01;;;;;;;;;1.00;1.00;;;;;;;;5056192;28;45515;-70
2022/02/07 14:19:33;;;;;;;;;4.75;2.25;;;;;;;;5052578;28;45522;-69
2022/02/07 14:21:58;;;;;;;;;2.75;1.00;;;;;;;;5052568;28;45267;-69
2022/02/07 14:24:27;;;;;;;;;3.50;1.00;;;;;;;;5052158;28;45553;-69
2022/02/07 14:26:52;;;;;;;;;1.00;1.00;;;;;;;;5055303;28;46584;-69
2022/02/07 14:29:17;;;;;;;;;2.00;1.00;;;;;;;;5061819;28;45594;-70
2022/02/07 14:31:43;;;;;;;;;2.75;1.25;;;;;;;;5056922;28;45288;-70
2022/02/07 14:34:08;;;;;;;;;2.00;2.00;;;;;;;;5055165;28;45451;-70
2022/02/07 14:36:36;;;;;;;;;2.00;2.00;;;;;;;;5050125;28;47237;-69
2022/02/07 14:39:01;;;;;;;;;1.00;1.00;;;;;;;;5052657;28;45632;-69
2022/02/07 14:41:26;;;;;;;;;3.75;1.00;;;;;;;;5062916;28;45429;-70
2022/02/07 14:43:59;;;;;;;;;2.25;2.00;;;;;;;;5053479;28;45379;-69
2022/02/07 14:46:26;;;;;;;;;3.00;1.75;;;;;;;;5053582;28;46244;-70
2022/02/07 14:48:51;;;;;;;;;2.00;2.00;;;;;;;;5059012;28;45393;-70
2022/02/07 14:51:17;;;;;;;;;3.50;2.00;;;;;;;;5053669;28;45586;-70
2022/02/07 14:53:43;;;;;;;;;2.50;2.50;;;;;;;;5053454;28;46507;-70
2022/02/07 14:56:08;;;;;;;;;1.00;0.50;;;;;;;;5054637;28;46397;-70
2022/02/07 14:58:34;;;;;;;;;1.00;1.00;;;;;;;;5053107;28;45494;-70
2022/02/07 15:01:00;;;;;;;;;1.50;1.50;;;;;;;;5052547;28;45375;-70
2022/02/07 15:03:25;;;;;;;;;0.50;0.50;;;;;;;;5060686;28;45430;-70
2022/02/07 15:05:53;;;;;;;;;3.75;1.75;;;;;;;;5053911;28;45372;-70
2022/02/07 15:08:19;;;;;;;;;1.25;1.25;;;;;;;;5055214;28;45438;-70
2022/02/07 15:10:45;;;;;;;;;1.50;0.25;;;;;;;;5053264;28;45424;-70
2022/02/07 15:13:10;;;;;;;;;2.00;1.75;;;;;;;;5054041;28;45294;-69
2022/02/07 15:15:38;;;;;;;;;2.00;1.75;;;;;;;;5051274;28;46667;-69
2022/02/07 15:18:07;;;;;;;;;2.50;1.00;;;;;;;;5049078;28;45414;-70
2022/02/07 15:20:33;;;;;;;;;1.50;1.50;;;;;;;;5052037;28;45233;-70
2022/02/07 15:22:58;;;;;;;;;2.75;1.75;;;;;;;;5052306;28;45272;-70
2022/02/07 15:25:30;;;;;;;;;2.00;2.00;;;;;;;;5057029;28;46335;-70
2022/02/07 15:27:57;;;;;;;;;3.00;1.25;;;;;;;;5059801;28;45374;-70
2022/02/07 15:30:24;;;;;;;;;2.50;1.50;;;;;;;;5054180;28;45468;-69
2022/02/07 15:32:52;;;;;;;;;1.00;1.00;;;;;;;;5037376;28;45221;-70
2022/02/07 15:35:17;;;;;;;;;2.75;1.00;;;;;;;;5050971;28;46647;-70
2022/02/07 15:37:42;;;;;;;;;5.00;4.00;;;;;;;;5051293;28;45415;-70
2022/02/07 15:40:09;;;;;;;;;1.00;1.00;;;;;;;;5053264;28;45415;-69
2022/02/07 15:42:34;;;;;;;;;4.00;2.00;;;;;;;;5056448;28;45468;-70
2022/02/07 15:45:02;;;;;;;;;1.00;0.75;;;;;;;;5055238;28;48046;-70
2022/02/07 15:47:30;;;;;;;;;4.75;2.50;;;;;;;;5057511;28;45354;-70
2022/02/07 15:49:56;;;;;;;;;1.25;1.25;;;;;;;;5065128;28;45623;-70
2022/02/07 15:52:21;;;;;;;;;1.00;1.00;;;;;;;;5052368;28;45574;-69
2022/02/07 15:54:51;;;;;;;;;2.00;0.75;;;;;;;;5055664;28;45675;-70
2022/02/07 15:57:16;;;;;;;;;2.25;2.25;;;;;;;;5054925;28;48207;-69
2022/02/07 15:59:42;;;;;;;;;1.00;1.00;;;;;;;;5057383;28;45342;-70
2022/02/07 16:02:07;;;;;;;;;1.00;1.00;;;;;;;;5058673;28;45323;-70
2022/02/07 16:04:33;;;;;;;;;2.00;2.00;;;;;;;;5054253;28;45470;-69
2022/02/07 16:06:59;;;;;;;;;2.25;1.25;;;;;;;;5055433;28;45527;-70
2022/02/07 16:09:24;;;;;;;;;2.50;1.00;;;;;;;;5054941;28;45444;-70
2022/02/07 16:11:49;;;;;;;;;1.00;1.00;;;;;;;;5055955;28;45490;-70
2022/02/07 16:14:22;;;;;;;;;1.50;1.50;;;;;;;;5057381;28;46433;-70
2022/02/07 16:16:48;;;;;;;;;1.00;1.00;;;;;;;;5055198;28;45328;-70
2022/02/07 16:19:14;;;;;;;;;1.50;1.00;;;;;;;;5056042;28;45454;-69
2022/02/07 16:21:39;;;;;;;;;1.00;1.00;;;;;;;;5055270;28;45465;-70
2022/02/07 16:24:04;;;;;;;;;1.33;1.00;;;;;;;;5058156;28;45399;-69
2022/02/07 16:26:29;;;;;;;;;2.75;1.00;;;;;;;;5057334;28;49225;-70
2022/02/07 16:28:55;;;;;;;;;1.50;1.00;;;;;;;;5057344;28;45604;-69
2022/02/07 16:31:20;;;;;;;;;1.00;1.00;;;;;;;;5054433;28;45505;-70
2022/02/07 16:33:45;;;;;;;;;2.00;1.25;;;;;;;;5055523;28;45361;-70
2022/02/07 16:36:10;;;;;;;;;1.00;1.00;;;;;;;;5054299;28;45547;-69
2022/02/07 16:38:36;;;;;;;;;2.75;2.00;;;;;;;;5056557;28;45300;-69
2022/02/07 16:41:01;;;;;;;;;1.00;1.00;;;;;;;;5055775;28;45345;-70
2022/02/07 16:43:29;;;;;;;;;3.00;1.50;;;;;;;;5053869;28;45542;-70
2022/02/07 16:48:21;;;;;;;;;2.00;2.00;;;;;;;;5055781;28;45621;-70
2022/02/07 16:50:46;;;;;;;;;2.00;2.00;;;;;;;;5055118;28;45504;-70
2022/02/07 16:53:11;;;;;;;;;1.75;1.75;;;;;;;;5056986;28;45469;-70
2022/02/07 16:55:37;;;;;;;;;2.25;1.25;;;;;;;;5053836;28;45837;-69
2022/02/07 16:58:02;;;;;;;;;1.00;1.00;;;;;;;;5055661;28;45746;-70
2022/02/07 17:00:27;;;;;;;;;0.75;0.75;;;;;;;;5052886;28;45604;-70
2022/02/07 17:02:53;;;;;;;;;2.50;1.75;;;;;;;;5053973;28;46271;-69
2022/02/07 17:05:18;;;;;;;;;1.50;1.00;;;;;;;;5057342;27;45401;-70
2022/02/07 17:07:47;;;;;;;;;1.67;1.67;;;;;;;;5054690;28;45386;-70
2022/02/07 17:10:16;;;;;;;;;1.50;1.00;;;;;;;;5054515;28;45334;-68
2022/02/07 17:12:42;;;;;;;;;2.50;1.25;;;;;;;;5057507;28;46120;-68
2022/02/07 17:15:07;;;;;;;;;2.00;1.00;;;;;;;;5053425;28;45462;-68